Time;durP1;ratioP1;P1;durP2;ratioP2;P2;SDS_P1;SDS_P2;PMS_P1;PMS_P2;Temp;Humidity;BMP_temperature;BMP_pressure;BME280_temperature;BME280_humidity;BME280_pressure;Samples;Min_cycle;Max_cycle;Signal;HPM_P1;HPM_P2
2023/08/20 00:00:30;;;;;;;0.38;0.38;;;15.40;99.90;;;;;;5112481;28;20070;-62
2023/08/20 00:03:03;;;;;;;0.20;0.20;;;15.40;99.90;;;;;;5113653;28;20040;-62
2023/08/20 00:05:30;;;;;;;0.20;0.20;;;15.00;99.90;;;;;;5113671;28;20475;-63
2023/08/20 00:07:56;;;;;;;0.45;0.43;;;15.60;99.90;;;;;;5113116;28;20516;-62
2023/08/20 00:10:22;;;;;;;;;;;15.70;99.90;;;;;;5113444;28;20052;-63
2023/08/20 00:12:47;;;;;;;0.35;0.35;;;15.80;99.90;;;;;;5112899;28;19923;-62
2023/08/20 00:15:13;;;;;;;;;;;14.90;99.90;;;;;;5113914;28;20058;-63
2023/08/20 00:17:40;;;;;;;0.52;0.52;;;15.80;99.90;;;;;;5113649;28;19930;-64
2023/08/20 00:20:18;;;;;;;0.57;0.57;;;15.20;99.90;;;;;;5113482;28;20386;-62
2023/08/20 00:22:45;;;;;;;0.80;0.80;;;15.40;99.90;;;;;;5113800;28;20063;-63
2023/08/20 00:25:12;;;;;;;0.28;0.28;;;15.60;99.90;;;;;;5113325;28;20130;-62
2023/08/20 00:27:39;;;;;;;0.47;0.47;;;15.40;99.90;;;;;;5113263;28;20044;-62
2023/08/20 00:30:05;;;;;;;0.20;0.20;;;15.50;99.90;;;;;;5112597;28;20050;-62
2023/08/20 00:32:31;;;;;;;0.30;0.30;;;15.30;99.90;;;;;;5113078;28;20040;-62
2023/08/20 00:34:57;;;;;;;;;;;15.40;99.90;;;;;;5113668;28;20031;-62
2023/08/20 00:37:22;;;;;;;0.35;0.35;;;15.40;99.90;;;;;;5113322;28;19926;-62
2023/08/20 00:39:48;;;;;;;;;;;15.10;99.90;;;;;;5113021;28;20047;-63
2023/08/20 00:42:16;;;;;;;0.20;0.20;;;15.20;99.90;;;;;;5112262;28;20840;-62
2023/08/20 00:44:44;;;;;;;0.20;0.20;;;14.80;99.90;;;;;;5112938;28;20118;-62
2023/08/20 00:47:10;;;;;;;0.20;0.20;;;15.60;99.90;;;;;;5113145;28;20055;-62
2023/08/20 00:49:36;;;;;;;1.65;0.80;;;15.00;99.90;;;;;;5112937;28;20143;-63
2023/08/20 00:52:02;;;;;;;;;;;15.30;99.90;;;;;;5095196;28;20122;-62
2023/08/20 00:54:29;;;;;;;0.10;0.10;;;15.20;99.90;;;;;;5112200;28;19935;-64
2023/08/20 00:56:55;;;;;;;0.47;0.47;;;14.90;99.90;;;;;;5111914;28;20043;-63
2023/08/20 00:59:20;;;;;;;;;;;12.80;99.90;;;;;;5113107;28;20043;-63
2023/08/20 01:01:46;;;;;;;0.20;0.20;;;15.10;99.90;;;;;;5112624;28;19975;-62
2023/08/20 01:04:12;;;;;;;;;;;14.90;99.90;;;;;;5113346;28;20426;-62
2023/08/20 01:06:58;;;;;;;0.30;0.30;;;15.00;99.90;;;;;;5112483;28;20386;-62
2023/08/20 01:09:49;;;;;;;0.40;0.40;;;14.90;99.90;;;;;;5112869;28;20055;-61
2023/08/20 01:12:17;;;;;;;0.82;0.82;;;15.10;99.90;;;;;;5112159;28;20126;-64
2023/08/20 01:14:43;;;;;;;0.30;0.30;;;15.20;99.90;;;;;;5112081;28;20445;-62
2023/08/20 01:17:08;;;;;;;;;;;15.20;99.90;;;;;;5112991;28;20051;-62
2023/08/20 01:19:35;;;;;;;0.45;0.45;;;15.30;99.90;;;;;;5112183;28;19927;-62
2023/08/20 01:22:39;;;;;;;0.55;0.22;;;15.10;99.90;;;;;;5111592;28;20468;-63
2023/08/20 01:25:22;;;;;;;0.40;0.40;;;15.60;99.90;;;;;;5112213;28;20039;-62
2023/08/20 01:28:09;;;;;;;0.30;0.30;;;14.50;99.90;;;;;;5112440;28;20054;-62
2023/08/20 01:30:35;;;;;;;1.80;0.77;;;14.70;99.90;;;;;;5112021;28;20043;-63
2023/08/20 01:33:02;;;;;;;0.20;0.20;;;15.10;99.90;;;;;;5111715;28;20051;-62
2023/08/20 01:35:28;;;;;;;0.30;0.30;;;14.70;99.90;;;;;;5111867;28;20051;-63
2023/08/20 01:37:54;;;;;;;;;;;15.20;99.90;;;;;;5094116;28;20051;-62
2023/08/20 01:40:19;;;;;;;0.47;0.47;;;14.80;99.90;;;;;;5111012;28;19927;-63
2023/08/20 01:42:45;;;;;;;;;;;14.70;99.90;;;;;;5111684;28;20497;-62
2023/08/20 01:45:11;;;;;;;0.20;0.20;;;15.00;99.90;;;;;;5111671;28;20531;-62
2023/08/20 01:47:36;;;;;;;;;;;15.10;99.90;;;;;;5112397;28;20139;-62
2023/08/20 01:50:02;;;;;;;0.40;0.40;;;14.80;99.90;;;;;;5111555;28;19930;-62
2023/08/20 01:52:29;;;;;;;;;;;14.80;99.90;;;;;;5112293;28;20093;-62
2023/08/20 01:54:55;;;;;;;0.28;0.28;;;14.20;99.90;;;;;;5111057;28;19919;-62
2023/08/20 01:57:20;;;;;;;;;;;14.70;99.90;;;;;;5111096;28;20047;-63
2023/08/20 01:59:47;;;;;;;0.90;0.85;;;14.80;99.90;;;;;;5111578;28;20017;-62
2023/08/20 02:02:13;;;;;;;0.32;0.32;;;14.60;99.90;;;;;;5111596;28;20051;-62
2023/08/20 02:04:39;;;;;;;0.28;0.28;;;14.70;99.90;;;;;;5111345;28;20491;-63
2023/08/20 02:07:05;;;;;;;;;;;14.50;99.90;;;;;;5111869;28;20457;-63
2023/08/20 02:09:31;;;;;;;0.20;0.20;;;14.50;99.90;;;;;;5110317;28;20294;-62
2023/08/20 02:11:57;;;;;;;0.40;0.40;;;14.60;99.90;;;;;;5110728;28;20606;-62
2023/08/20 02:14:22;;;;;;;0.95;0.40;;;14.50;99.90;;;;;;5111403;28;20139;-62
2023/08/20 02:16:48;;;;;;;;;;;14.60;99.90;;;;;;5111809;28;20056;-63
2023/08/20 02:19:14;;;;;;;0.52;0.52;;;14.80;99.90;;;;;;5111503;28;20318;-62
2023/08/20 02:21:39;;;;;;;;;;;14.80;99.90;;;;;;5111896;28;20082;-62
2023/08/20 02:24:06;;;;;;;0.22;0.22;;;14.50;99.90;;;;;;5110388;28;20019;-62
2023/08/20 02:26:31;;;;;;;0.40;0.40;;;14.90;99.90;;;;;;5111186;28;20101;-63
2023/08/20 02:28:57;;;;;;;0.20;0.20;;;14.80;99.90;;;;;;5110778;28;20387;-62
2023/08/20 02:31:23;;;;;;;0.30;0.30;;;14.40;99.90;;;;;;5110364;28;20040;-62
2023/08/20 02:33:49;;;;;;;;;;;14.30;99.90;;;;;;5111699;28;20055;-63
2023/08/20 02:36:14;;;;;;;0.45;0.45;;;14.60;99.90;;;;;;5111124;28;19923;-62
2023/08/20 02:38:40;;;;;;;;;;;14.40;99.90;;;;;;5111711;28;20066;-63
2023/08/20 02:41:06;;;;;;;0.22;0.22;;;14.60;99.90;;;;;;5110997;28;19935;-62
2023/08/20 02:43:31;;;;;;;0.57;0.57;;;14.60;99.90;;;;;;5111050;28;20054;-62
2023/08/20 02:45:57;;;;;;;;;;;14.60;99.90;;;;;;5110613;28;20466;-62
2023/08/20 02:48:26;;;;;;;0.85;0.85;;;14.20;99.90;;;;;;5110284;28;19943;-62
2023/08/20 02:50:54;;;;;;;0.10;0.10;;;12.30;99.90;;;;;;5110892;28;20391;-62
2023/08/20 02:53:20;;;;;;;0.85;0.50;;;14.50;99.90;;;;;;5110937;28;20380;-62
2023/08/20 02:55:46;;;;;;;0.38;0.38;;;14.10;99.90;;;;;;5110782;28;20425;-62
2023/08/20 02:58:12;;;;;;;0.30;0.30;;;14.60;99.90;;;;;;5110263;28;20047;-62
2023/08/20 03:00:37;;;;;;;;;;;14.70;99.90;;;;;;5092480;28;20059;-62
2023/08/20 03:03:07;;;;;;;0.35;0.35;;;14.10;99.90;;;;;;5110504;28;19930;-62
2023/08/20 03:05:33;;;;;;;0.32;0.32;;;13.90;99.90;;;;;;5110868;28;20083;-62
2023/08/20 03:07:59;;;;;;;0.55;0.55;;;14.30;99.90;;;;;;5110848;28;20511;-62
2023/08/20 03:10:24;;;;;;;;;;;14.90;99.90;;;;;;5111112;28;20713;-62
2023/08/20 03:12:50;;;;;;;0.43;0.43;;;14.00;99.90;;;;;;5110526;28;19923;-63
2023/08/20 03:15:15;;;;;;;;;;;14.00;99.90;;;;;;5111114;28;20056;-63
2023/08/20 03:17:41;;;;;;;0.30;0.30;;;14.00;99.90;;;;;;5110836;28;20351;-62
2023/08/20 03:20:07;;;;;;;;;;;14.20;99.90;;;;;;5111291;28;20054;-61
2023/08/20 03:22:33;;;;;;;0.52;0.52;;;13.90;99.90;;;;;;5110944;28;19923;-61
2023/08/20 03:24:59;;;;;;;0.40;0.40;;;14.50;99.90;;;;;;5110566;28;20050;-62
2023/08/20 03:27:24;;;;;;;;;;;14.20;99.90;;;;;;5111101;28;20036;-62
2023/08/20 03:29:52;;;;;;;0.25;0.25;;;14.20;99.90;;;;;;5110621;28;19924;-62
2023/08/20 03:32:18;;;;;;;0.20;0.20;;;14.40;99.90;;;;;;5110999;28;20102;-61
2023/08/20 03:34:44;;;;;;;0.40;0.40;;;14.60;99.90;;;;;;5111642;28;20079;-61
2023/08/20 03:37:09;;;;;;;;;;;14.00;99.90;;;;;;5114081;28;20096;-62
2023/08/20 03:39:35;;;;;;;0.32;0.32;;;14.30;99.90;;;;;;5113376;28;20355;-62
2023/08/20 03:42:00;;;;;;;;;;;14.10;99.90;;;;;;5114856;28;20052;-62
2023/08/20 03:44:26;;;;;;;0.32;0.32;;;14.70;99.90;;;;;;5114235;28;19935;-63
2023/08/20 03:46:52;;;;;;;;;;;14.50;99.90;;;;;;5114639;28;20859;-62
2023/08/20 03:49:18;;;;;;;0.50;0.50;;;14.60;99.90;;;;;;5114006;28;20105;-63
2023/08/20 03:51:43;;;;;;;;;;;14.20;99.90;;;;;;5114620;28;20058;-63
2023/08/20 03:54:09;;;;;;;1.90;0.82;;;14.00;99.90;;;;;;5113814;28;19926;-62
2023/08/20 03:56:35;;;;;;;;;;;14.60;99.90;;;;;;5114319;28;20194;-62
2023/08/20 03:59:01;;;;;;;0.57;0.57;;;14.20;99.90;;;;;;5114504;28;20038;-61
2023/08/20 04:01:27;;;;;;;0.40;0.40;;;14.10;99.90;;;;;;5113880;28;20074;-62
2023/08/20 04:03:52;;;;;;;0.50;0.50;;;14.10;99.90;;;;;;5113823;28;20500;-62
2023/08/20 04:06:18;;;;;;;;;;;14.30;99.90;;;;;;5114166;28;20047;-63
2023/08/20 04:08:44;;;;;;;1.10;0.45;;;14.70;99.90;;;;;;5112699;28;19930;-63
2023/08/20 04:11:09;;;;;;;;;;;13.90;99.90;;;;;;5095471;28;20040;-62
2023/08/20 04:13:35;;;;;;;0.50;0.50;;;13.70;99.90;;;;;;5113710;28;19923;-62
2023/08/20 04:16:01;;;;;;;0.47;0.47;;;13.70;99.90;;;;;;5113717;28;20136;-62
2023/08/20 04:18:26;;;;;;;0.35;0.35;;;14.60;99.90;;;;;;5113532;28;20044;-61
2023/08/20 04:20:52;;;;;;;;;;;13.60;99.90;;;;;;5113164;28;20078;-62
2023/08/20 04:23:19;;;;;;;14.80;1.05;;;14.20;99.90;;;;;;5112640;28;19931;-61
2023/08/20 04:25:45;;;;;;;0.45;0.45;;;13.60;99.90;;;;;;5113331;28;20050;-62
2023/08/20 04:28:13;;;;;;;0.50;0.50;;;14.40;99.90;;;;;;5113440;28;20075;-63
2023/08/20 04:30:39;;;;;;;0.47;0.47;;;14.40;99.90;;;;;;5113263;28;20134;-62
2023/08/20 04:33:05;;;;;;;0.57;0.57;;;14.30;99.90;;;;;;5095343;28;20143;-62
2023/08/20 04:35:31;;;;;;;1.10;1.00;;;14.40;99.90;;;;;;5112982;28;20075;-62
2023/08/20 04:37:56;;;;;;;0.40;0.40;;;14.20;99.90;;;;;;5112706;28;20506;-62
2023/08/20 04:40:22;;;;;;;2.13;1.00;;;14.00;99.90;;;;;;5113330;28;20123;-62
2023/08/20 04:42:48;;;;;;;;;;;14.30;99.90;;;;;;5113482;28;20653;-64
2023/08/20 04:45:14;;;;;;;0.32;0.32;;;14.20;99.90;;;;;;5112983;28;19928;-63
2023/08/20 04:47:40;;;;;;;0.85;0.60;;;14.00;99.90;;;;;;5093468;28;20106;-62
2023/08/20 04:50:08;;;;;;;1.70;1.15;;;14.60;99.90;;;;;;5112437;28;20059;-62
2023/08/20 04:52:34;;;;;;;1.73;1.13;;;14.00;99.90;;;;;;5112699;28;20196;-63
2023/08/20 04:55:01;;;;;;;0.55;0.55;;;14.20;99.90;;;;;;5113026;28;20131;-62
2023/08/20 04:57:27;;;;;;;0.77;0.77;;;14.20;99.90;;;;;;5112935;28;20079;-62
2023/08/20 04:59:52;;;;;;;0.90;0.90;;;13.60;99.90;;;;;;5112973;28;20079;-62
2023/08/20 05:02:18;;;;;;;;;;;14.10;99.90;;;;;;5112595;28;20100;-62
2023/08/20 05:04:44;;;;;;;1.08;0.70;;;14.30;99.90;;;;;;5112593;28;19988;-63
2023/08/20 05:07:09;;;;;;;;;;;14.80;99.90;;;;;;5113134;28;20588;-63
2023/08/20 05:09:35;;;;;;;0.50;0.50;;;14.80;99.90;;;;;;5112792;28;19944;-62
2023/08/20 05:12:02;;;;;;;3.03;1.02;;;14.20;99.90;;;;;;5112612;28;20050;-61
2023/08/20 05:14:28;;;;;;;0.50;0.50;;;14.90;99.90;;;;;;5093240;28;20536;-63
2023/08/20 05:16:53;;;;;;;0.47;0.47;;;13.90;99.90;;;;;;5111671;28;20100;-63
2023/08/20 05:19:19;;;;;;;;;;;14.00;99.90;;;;;;5112977;28;20040;-63
2023/08/20 05:21:45;;;;;;;0.70;0.70;;;15.20;99.90;;;;;;5112388;28;19924;-63
2023/08/20 05:24:10;;;;;;;;;;;14.30;99.90;;;;;;5112827;28;20043;-63
2023/08/20 05:26:36;;;;;;;0.25;0.25;;;14.00;99.90;;;;;;5112547;28;19925;-62
2023/08/20 05:29:01;;;;;;;;;;;15.30;99.90;;;;;;5113219;28;20043;-63
2023/08/20 05:31:28;;;;;;;0.40;0.40;;;14.10;99.90;;;;;;5112273;28;19927;-62
2023/08/20 05:33:53;;;;;;;0.45;0.45;;;14.40;99.90;;;;;;5111392;28;20101;-62
2023/08/20 05:36:19;;;;;;;0.28;0.28;;;15.50;99.90;;;;;;5111228;28;20060;-62
2023/08/20 05:38:45;;;;;;;;;;;15.60;99.90;;;;;;5112758;28;20047;-63
2023/08/20 05:41:10;;;;;;;0.20;0.20;;;15.60;99.90;;;;;;5093479;28;19928;-64
2023/08/20 05:43:36;;;;;;;;;;;15.20;99.90;;;;;;5112634;28;20052;-62
2023/08/20 05:46:02;;;;;;;0.52;0.52;;;16.00;99.90;;;;;;5112115;28;19931;-62
2023/08/20 05:48:28;;;;;;;0.30;0.30;;;15.00;99.90;;;;;;5111899;28;20512;-62
2023/08/20 05:50:54;;;;;;;0.60;0.60;;;15.10;99.90;;;;;;5111006;28;20047;-63
2023/08/20 05:53:21;;;;;;;0.55;0.55;;;15.60;99.90;;;;;;5111328;28;20494;-62
2023/08/20 05:55:47;;;;;;;1.20;0.52;;;14.90;99.90;;;;;;5111835;28;20063;-63
2023/08/20 05:58:13;;;;;;;;;;;15.40;99.90;;;;;;5111341;28;20039;-62
2023/08/20 06:00:38;;;;;;;2.10;1.15;;;16.30;99.90;;;;;;5111491;28;19926;-61
2023/08/20 06:03:04;;;;;;;;;;;16.40;99.90;;;;;;5112016;28;20055;-63
2023/08/20 06:05:30;;;;;;;0.30;0.30;;;15.40;99.90;;;;;;5111274;28;19977;-63
2023/08/20 06:07:55;;;;;;;;;;;15.60;99.90;;;;;;5111893;28;20047;-62
2023/08/20 06:10:21;;;;;;;0.20;0.20;;;16.50;99.90;;;;;;5111612;28;19924;-62
2023/08/20 06:12:46;;;;;;;;;;;16.00;99.90;;;;;;5111883;28;20051;-62
2023/08/20 06:15:13;;;;;;;0.20;0.20;;;16.90;99.90;;;;;;5111424;28;20289;-63
2023/08/20 06:17:39;;;;;;;0.20;0.20;;;17.00;99.90;;;;;;5111401;28;20056;-62
2023/08/20 06:20:08;;;;;;;;;;;16.30;99.90;;;;;;5112100;28;20048;-63
2023/08/20 06:22:34;;;;;;;2.38;0.88;;;16.00;99.90;;;;;;5111260;28;20010;-61
2023/08/20 06:25:00;;;;;;;;;;;17.20;99.90;;;;;;5111635;28;20051;-63
2023/08/20 06:27:26;;;;;;;1.17;1.08;;;17.40;99.90;;;;;;5111312;28;19924;-62
2023/08/20 06:29:51;;;;;;;;;;;16.80;99.90;;;;;;5111588;28;20386;-63
2023/08/20 06:32:17;;;;;;;2.85;1.42;;;17.00;99.90;;;;;;5111261;28;19923;-62
2023/08/20 06:34:43;;;;;;;;;;;17.70;99.90;;;;;;5093653;28;20055;-62
2023/08/20 06:37:08;;;;;;;0.13;0.13;;;17.90;99.90;;;;;;5111044;28;19964;-62
2023/08/20 06:39:34;;;;;;;0.35;0.30;;;17.50;99.90;;;;;;5110943;28;20047;-63
2023/08/20 06:42:00;;;;;;;7.28;1.10;;;16.90;99.90;;;;;;5106393;28;20048;-66
2023/08/20 06:44:26;;;;;;;;;;;17.60;99.90;;;;;;5103089;28;20090;-62
2023/08/20 06:46:51;;;;;;;4.13;1.33;;;18.40;99.90;;;;;;5110653;28;20448;-63
2023/08/20 06:49:17;;;;;;;0.70;0.45;;;18.20;99.90;;;;;;5090570;28;20044;-62
2023/08/20 06:51:43;;;;;;;;;;;18.30;99.90;;;;;;5090315;28;20051;-62
2023/08/20 06:54:09;;;;;;;0.63;0.63;;;17.60;99.90;;;;;;5108992;28;20012;-63
2023/08/20 06:56:35;;;;;;;0.30;0.30;;;18.70;99.90;;;;;;5110730;28;20054;-63
2023/08/20 06:59:01;;;;;;;;;;;17.30;99.90;;;;;;5110132;28;20044;-61
2023/08/20 07:01:27;;;;;;;0.10;0.10;;;17.80;99.90;;;;;;5110260;28;19923;-62
2023/08/20 07:03:52;;;;;;;;;;;18.70;99.90;;;;;;5110982;28;20043;-62
2023/08/20 07:06:18;;;;;;;0.38;0.38;;;18.90;99.90;;;;;;5091863;28;20343;-62
2023/08/20 07:08:44;;;;;;;0.30;0.30;;;18.30;99.90;;;;;;5110418;28;20104;-63
2023/08/20 07:11:10;;;;;;;1.38;0.38;;;18.80;99.90;;;;;;5106005;28;20055;-61
2023/08/20 07:13:36;;;;;;;0.40;0.40;;;18.40;99.90;;;;;;5112758;28;20053;-63
2023/08/20 07:16:02;;;;;;;0.40;0.40;;;19.40;99.90;;;;;;5114477;28;20044;-61
2023/08/20 07:18:28;;;;;;;0.88;0.38;;;19.20;99.90;;;;;;5114287;28;20364;-63
2023/08/20 07:20:55;;;;;;;2.10;1.25;;;19.30;99.90;;;;;;5114036;28;20055;-61
2023/08/20 07:23:21;;;;;;;0.22;0.22;;;18.60;99.90;;;;;;5114100;28;20698;-60
2023/08/20 07:25:46;;;;;;;2.90;0.47;;;19.50;99.90;;;;;;5114067;28;20051;-60
2023/08/20 07:28:13;;;;;;;0.20;0.20;;;18.80;99.90;;;;;;5110067;28;20070;-62
2023/08/20 07:30:38;;;;;;;0.20;0.20;;;19.00;99.90;;;;;;5113842;28;20043;-60
2023/08/20 07:33:06;;;;;;;0.30;0.30;;;19.40;99.90;;;;;;5114865;28;20054;-60
2023/08/20 07:35:31;;;;;;;2.80;0.30;;;19.30;99.90;;;;;;5114837;28;20095;-61
2023/08/20 07:37:57;;;;;;;0.63;0.63;;;19.20;99.90;;;;;;5114869;28;20051;-60
2023/08/20 07:40:23;;;;;;;0.68;0.30;;;19.80;99.90;;;;;;5114478;28;20058;-60
2023/08/20 07:42:50;;;;;;;0.40;0.40;;;20.10;99.90;;;;;;5114772;28;20130;-60
2023/08/20 07:45:16;;;;;;;0.25;0.25;;;19.80;99.90;;;;;;5114418;28;20120;-61
2023/08/20 07:47:42;;;;;;;1.75;1.05;;;19.80;99.90;;;;;;5114694;28;20468;-61
2023/08/20 07:50:07;;;;;;;1.77;1.05;;;20.00;99.90;;;;;;5113733;28;20052;-59
2023/08/20 07:52:33;;;;;;;0.20;0.20;;;19.60;99.90;;;;;;5109559;28;20059;-61
2023/08/20 07:54:59;;;;;;;0.32;0.32;;;19.50;99.90;;;;;;5093350;28;20040;-61
2023/08/20 07:57:25;;;;;;;0.35;0.35;;;20.20;99.90;;;;;;5078543;28;20538;-60
2023/08/20 07:59:51;;;;;;;0.38;0.22;;;20.00;99.90;;;;;;5093811;28;20131;-60
2023/08/20 08:02:17;;;;;;;12.80;1.02;;;20.00;99.90;;;;;;5093925;28;20080;-61
2023/08/20 08:04:43;;;;;;;1.70;0.30;;;20.40;99.90;;;;;;5093868;28;20088;-60
2023/08/20 08:07:10;;;;;;;0.32;0.30;;;20.30;99.90;;;;;;5098775;28;20503;-62
2023/08/20 08:09:36;;;;;;;0.55;0.55;;;20.60;99.90;;;;;;5113257;28;20055;-62
2023/08/20 08:12:03;;;;;;;0.38;0.38;;;20.90;99.90;;;;;;5113497;28;20047;-61
2023/08/20 08:14:29;;;;;;;0.40;0.40;;;20.60;99.90;;;;;;5112226;28;20048;-62
2023/08/20 08:16:55;;;;;;;0.40;0.40;;;20.80;99.90;;;;;;5109468;28;20051;-66
2023/08/20 08:19:21;;;;;;;0.32;0.22;;;20.50;99.90;;;;;;5110309;28;20054;-62
2023/08/20 08:21:47;;;;;;;1.67;0.57;;;20.70;99.90;;;;;;5111925;28;20047;-61
2023/08/20 08:24:13;;;;;;;0.77;0.77;;;20.80;99.90;;;;;;5112618;28;20107;-60
2023/08/20 08:26:39;;;;;;;0.13;0.13;;;20.70;99.90;;;;;;5113311;28;20043;-60
2023/08/20 08:29:06;;;;;;;0.10;0.10;;;20.80;99.90;;;;;;5113898;28;20063;-62
2023/08/20 08:31:32;;;;;;;0.85;0.82;;;20.90;99.90;;;;;;5114043;28;20083;-63
2023/08/20 08:33:58;;;;;;;1.10;0.38;;;20.90;99.90;;;;;;5113387;28;20078;-60
2023/08/20 08:36:27;;;;;;;0.52;0.40;;;20.80;99.90;;;;;;5113207;28;20046;-61
2023/08/20 08:38:53;;;;;;;0.22;0.22;;;21.20;99.90;;;;;;5112838;28;20054;-61
2023/08/20 08:41:22;;;;;;;1.15;0.77;;;21.10;99.90;;;;;;5112478;28;20039;-61
2023/08/20 08:43:49;;;;;;;0.38;0.38;;;20.80;99.90;;;;;;5112801;28;20093;-61
2023/08/20 08:46:15;;;;;;;0.20;0.20;;;21.10;99.90;;;;;;5112694;28;20075;-61
2023/08/20 08:48:43;;;;;;;0.10;0.10;;;21.30;99.90;;;;;;5102895;28;20054;-61
2023/08/20 08:51:09;;;;;;;0.65;0.65;;;21.50;99.90;;;;;;5112088;28;20040;-61
2023/08/20 08:53:35;;;;;;;0.85;0.85;;;22.00;99.90;;;;;;5112293;28;20059;-61
2023/08/20 08:56:03;;;;;;;0.08;0.08;;;22.00;99.90;;;;;;5111755;28;20749;-61
2023/08/20 08:58:29;;;;;;;0.20;0.20;;;21.90;99.90;;;;;;5112184;28;20051;-61
2023/08/20 09:00:54;;;;;;;0.52;0.52;;;22.50;99.90;;;;;;5112028;28;20055;-61
2023/08/20 09:03:20;;;;;;;1.40;1.30;;;22.30;99.90;;;;;;5111159;28;20039;-61
2023/08/20 09:05:55;;;;;;;1.45;0.65;;;22.30;99.90;;;;;;5112289;28;20399;-61
2023/08/20 09:08:30;;;;;;;0.10;0.10;;;21.80;99.90;;;;;;5112070;28;20510;-61
2023/08/20 09:10:58;;;;;;;2.92;1.58;;;21.60;99.90;;;;;;5111338;28;20052;-61
2023/08/20 09:13:35;;;;;;;0.90;0.90;;;21.60;99.90;;;;;;5111139;28;20052;-62
2023/08/20 09:16:05;;;;;;;0.70;0.57;;;22.00;99.90;;;;;;5111872;28;20108;-61
2023/08/20 09:18:31;;;;;;;0.57;0.43;;;22.10;99.90;;;;;;5111028;28;20051;-61
2023/08/20 09:20:58;;;;;;;0.30;0.30;;;22.10;99.90;;;;;;5112141;28;20051;-62
2023/08/20 09:23:26;;;;;;;0.22;0.20;;;22.30;99.90;;;;;;5111050;28;20043;-62
2023/08/20 09:25:53;;;;;;;0.10;0.10;;;22.60;99.90;;;;;;5110739;28;20127;-62
2023/08/20 09:28:19;;;;;;;0.68;0.47;;;22.30;99.90;;;;;;5110996;28;20039;-61
2023/08/20 09:31:03;;;;;;;0.20;0.20;;;22.50;99.90;;;;;;5111160;28;20494;-61
2023/08/20 09:33:29;;;;;;;0.77;0.43;;;23.10;99.90;;;;;;5110133;28;20700;-61
2023/08/20 09:35:55;;;;;;;0.10;0.10;;;23.00;99.90;;;;;;5111757;28;20043;-61
2023/08/20 09:38:22;;;;;;;0.32;0.32;;;23.30;99.90;;;;;;5111152;28;20471;-62
2023/08/20 09:40:53;;;;;;;0.85;0.85;;;22.80;99.90;;;;;;5111045;28;20054;-61
2023/08/20 09:43:19;;;;;;;0.63;0.52;;;23.10;99.90;;;;;;5111227;28;20051;-61
2023/08/20 09:45:47;;;;;;;0.65;0.65;;;23.60;99.90;;;;;;5110811;28;20047;-62
2023/08/20 09:48:19;;;;;;;0.57;0.22;;;23.40;99.90;;;;;;5110433;28;20044;-61
2023/08/20 09:50:47;;;;;;;0.10;0.10;;;22.90;99.90;;;;;;5111293;28;20047;-63
2023/08/20 09:53:38;;;;;;;3.80;2.15;;;23.10;99.90;;;;;;5109466;28;20046;-62
2023/08/20 09:56:20;;;;;;;0.30;0.20;;;23.30;99.90;;;;;;5098182;28;20062;-62
2023/08/20 09:58:48;;;;;;;1.63;1.05;;;23.10;99.90;;;;;;5110189;28;20047;-61
2023/08/20 10:01:14;;;;;;;0.52;0.52;;;22.70;99.90;;;;;;5111012;28;20104;-63
2023/08/20 10:03:42;;;;;;;0.70;0.70;;;22.40;99.90;;;;;;5110184;28;20115;-61
2023/08/20 10:06:09;;;;;;;0.40;0.40;;;23.20;99.90;;;;;;5110589;28;20044;-63
2023/08/20 10:08:36;;;;;;;0.30;0.30;;;23.00;99.90;;;;;;5110639;28;20112;-61
2023/08/20 10:11:02;;;;;;;0.30;0.30;;;23.40;99.90;;;;;;5083352;28;20055;-61
2023/08/20 10:13:28;;;;;;;0.15;0.15;;;23.80;99.90;;;;;;5100912;28;20495;-62
2023/08/20 10:15:55;;;;;;;0.95;0.95;;;23.80;99.90;;;;;;5090949;28;20063;-61
2023/08/20 10:18:22;;;;;;;0.45;0.45;;;23.80;99.90;;;;;;5110637;28;20487;-63
2023/08/20 10:20:50;;;;;;;0.30;0.30;;;23.80;99.90;;;;;;5110238;28;20094;-61
2023/08/20 10:23:22;;;;;;;0.38;0.20;;;24.50;99.90;;;;;;5109549;28;20059;-61
2023/08/20 10:25:48;;;;;;;0.85;0.43;;;24.40;99.90;;;;;;5110346;28;20043;-61
2023/08/20 10:28:22;;;;;;;0.10;0.10;;;24.30;99.90;;;;;;5111163;28;20402;-61
2023/08/20 10:31:09;;;;;;;1.05;0.30;;;23.70;99.90;;;;;;5111192;28;20055;-61
2023/08/20 10:33:48;;;;;;;0.57;0.55;;;23.50;99.90;;;;;;5110422;28;20090;-62
2023/08/20 10:36:22;;;;;;;0.20;0.20;;;23.80;99.90;;;;;;5111029;28;20421;-63
2023/08/20 10:38:49;;;;;;;0.10;0.10;;;23.70;99.90;;;;;;5111101;28;20051;-62
2023/08/20 10:41:18;;;;;;;0.38;0.38;;;24.10;99.90;;;;;;5110945;28;20495;-61
2023/08/20 10:43:52;;;;;;;0.10;0.10;;;24.00;99.90;;;;;;5093051;28;20050;-61
2023/08/20 10:46:23;;;;;;;0.30;0.30;;;24.70;99.90;;;;;;5103058;28;20047;-62
2023/08/20 10:48:52;;;;;;;0.88;0.75;;;24.70;99.90;;;;;;5115313;28;20556;-61
2023/08/20 10:51:28;;;;;;;0.03;0.03;;;24.50;99.90;;;;;;5115598;28;20058;-60
2023/08/20 10:53:59;;;;;;;8.80;0.13;;;24.60;99.90;;;;;;5115858;28;20051;-60
2023/08/20 10:56:38;;;;;;;0.85;0.70;;;25.00;99.90;;;;;;5096931;28;20051;-60
2023/08/20 10:59:16;;;;;;;0.47;0.35;;;24.90;99.90;;;;;;5109934;28;20044;-61
2023/08/20 11:01:50;;;;;;;0.10;0.10;;;24.00;99.90;;;;;;5093622;28;20438;-61
2023/08/20 11:04:18;;;;;;;0.30;0.30;;;24.00;99.90;;;;;;5114966;28;20047;-61
2023/08/20 11:06:45;;;;;;;0.90;0.52;;;23.50;99.90;;;;;;5096628;28;20043;-62
2023/08/20 11:09:11;;;;;;;0.10;0.10;;;23.50;99.90;;;;;;5115244;28;20047;-61
2023/08/20 11:11:40;;;;;;;0.47;0.28;;;24.00;99.90;;;;;;5115046;28;20056;-60
2023/08/20 11:14:08;;;;;;;0.17;0.17;;;24.00;99.90;;;;;;5114812;28;20135;-62
2023/08/20 11:16:36;;;;;;;0.10;0.10;;;24.40;99.90;;;;;;5114647;28;20066;-61
2023/08/20 11:19:07;;;;;;;0.10;0.10;;;24.40;99.90;;;;;;5114721;28;20051;-61
2023/08/20 11:21:33;;;;;;;0.03;0.03;;;24.60;99.90;;;;;;5113951;28;20105;-61
2023/08/20 11:24:00;;;;;;;0.20;0.10;;;25.00;99.90;;;;;;5114170;28;20083;-62
2023/08/20 11:26:26;;;;;;;0.80;0.22;;;24.80;99.90;;;;;;5114479;28;20092;-61
2023/08/20 11:28:51;;;;;;;1.13;0.52;;;24.50;99.90;;;;;;5114567;28;20051;-61
2023/08/20 11:31:17;;;;;;;0.70;0.38;;;23.90;99.90;;;;;;5114748;28;20048;-61
2023/08/20 11:33:43;;;;;;;1.67;1.00;;;23.20;99.90;;;;;;5114358;28;20204;-61
2023/08/20 11:36:08;;;;;;;0.10;0.10;;;23.70;99.90;;;;;;5114191;28;20043;-62
2023/08/20 11:38:34;;;;;;;0.05;0.05;;;23.60;99.90;;;;;;5113764;28;20078;-62
2023/08/20 11:41:00;;;;;;;0.03;0.03;;;24.20;99.90;;;;;;5113831;28;20432;-62
2023/08/20 11:43:29;;;;;;;0.10;0.10;;;24.40;99.90;;;;;;5114273;28;20039;-61
2023/08/20 11:45:55;;;;;;;0.17;0.17;;;24.20;99.90;;;;;;5113936;28;20044;-62
2023/08/20 11:48:22;;;;;;;1.77;1.58;;;24.20;99.90;;;;;;5114123;28;20046;-61
2023/08/20 11:50:49;;;;;;;1.25;0.28;;;24.30;99.90;;;;;;5114055;28;20792;-61
2023/08/20 11:53:20;;;;;;;0.10;0.05;;;24.20;99.90;;;;;;5113295;28;20101;-61
2023/08/20 11:55:46;;;;;;;0.17;0.10;;;24.50;99.90;;;;;;5113798;28;20044;-62
2023/08/20 11:58:12;;;;;;;0.05;0.05;;;24.60;99.90;;;;;;5113838;28;20047;-65
2023/08/20 12:00:38;;;;;;;0.00;0.00;;;25.30;99.90;;;;;;5095584;28;20414;-61
2023/08/20 12:03:05;;;;;;;0.28;0.15;;;25.20;99.90;;;;;;5113936;28;20056;-61
2023/08/20 12:05:31;;;;;;;0.38;0.38;;;25.70;99.90;;;;;;5113634;28;20417;-61
2023/08/20 12:08:00;;;;;;;0.43;0.43;;;25.70;99.90;;;;;;5113665;28;20074;-62
2023/08/20 12:10:28;;;;;;;0.10;0.10;;;26.10;99.90;;;;;;5113954;28;20055;-63
2023/08/20 12:12:55;;;;;;;0.13;0.13;;;26.10;99.90;;;;;;5112985;28;20047;-62
2023/08/20 12:15:21;;;;;;;0.10;0.10;;;25.60;99.90;;;;;;5112972;28;20061;-61
2023/08/20 12:18:04;;;;;;;0.80;0.80;;;25.70;99.90;;;;;;5113758;28;20084;-62
2023/08/20 12:20:31;;;;;;;0.65;0.15;;;25.60;99.90;;;;;;5113560;28;20058;-61
2023/08/20 12:23:01;;;;;;;0.10;0.10;;;25.60;99.90;;;;;;5113075;28;20047;-62
2023/08/20 12:25:29;;;;;;;1.10;0.30;;;25.80;99.90;;;;;;5112713;28;20432;-62
2023/08/20 12:27:56;;;;;;;13.35;0.70;;;26.00;99.90;;;;;;5113252;28;20509;-62
2023/08/20 12:30:22;;;;;;;0.00;0.00;;;25.70;99.90;;;;;;5113345;28;20094;-61
2023/08/20 12:32:47;;;;;;;0.45;0.20;;;25.40;99.90;;;;;;5113440;28;20087;-62
2023/08/20 12:35:13;;;;;;;0.10;0.10;;;26.00;99.90;;;;;;5113297;28;20040;-61
2023/08/20 12:37:39;;;;;;;0.55;0.15;;;25.90;99.90;;;;;;5113406;28;20043;-61
2023/08/20 12:40:10;;;;;;;0.00;0.00;;;25.80;99.90;;;;;;5113186;28;20086;-62
2023/08/20 12:42:37;;;;;;;0.10;0.10;;;26.00;99.90;;;;;;5113310;28;20047;-62
2023/08/20 12:45:07;;;;;;;0.00;0.00;;;25.70;99.90;;;;;;5113021;28;20086;-62
2023/08/20 12:47:34;;;;;;;0.00;0.00;;;25.80;99.90;;;;;;5113085;28;20040;-61
2023/08/20 12:50:00;;;;;;;0.90;0.90;;;25.10;99.90;;;;;;5112242;28;20058;-61
2023/08/20 12:52:25;;;;;;;3.83;0.17;;;25.70;99.90;;;;;;5111884;28;20047;-60
2023/08/20 12:54:51;;;;;;;0.20;0.20;;;25.80;99.90;;;;;;5112921;28;20130;-61
2023/08/20 12:57:17;;;;;;;0.57;0.10;;;25.50;99.90;;;;;;5112755;28;20043;-61
2023/08/20 12:59:43;;;;;;;0.05;0.05;;;26.10;99.90;;;;;;5112960;28;20039;-62